METAR Data
IDs: Format: Raw Decoded Include TAF

Data at: 2205 UTC 18 Apr 2021

EDFH 182150Z 29004KT CAVOK 06/04 Q1020